GLD965 SBRF-SBGR
Flight info
| Callsign | GLD965 |
|---|---|
| Flight time | N/A |
| Altitude | 32000 |
| Route | UDOSA UZ21 KORKA/N0453F340 UZ21 VUNOX |
| Aircraft | B738/M-SDE2E3FGHIRWXY/LB1 |
Departure
| Time | 2026-05-07 23:09 |
|---|---|
| Airport | Recife/Guararapes - Gilberto Freyre International Airport (SBRF) |
Arrival
| Time | N/A |
|---|---|
| Airport | São Paulo/Guarulhos–Governor André Franco Montoro International Airport (SBGR) |
| Time | Latitude | Longitude | Altitude | Speed | Heading |
|---|---|---|---|---|---|
| 2026-05-07 22:56 | -8.13471 | -34.91835 | 48 ft | 0 kts | 71° |
| 2026-05-07 23:00 | -8.13474 | -34.91846 | 48 ft | 3 kts | 71° |
| 2026-05-07 23:01 | -8.13480 | -34.91863 | 51 ft | 3 kts | 71° |
| 2026-05-07 23:01 | -8.13485 | -34.91880 | 45 ft | 3 kts | 71° |
| 2026-05-07 23:01 | -8.13490 | -34.91895 | 46 ft | 0 kts | 71° |
| 2026-05-07 23:02 | -8.13486 | -34.91892 | 47 ft | 4 kts | 38° |
| 2026-05-07 23:03 | -8.13431 | -34.91913 | 48 ft | 12 kts | 333° |
| 2026-05-07 23:03 | -8.13346 | -34.91943 | 45 ft | 15 kts | 345° |
| 2026-05-07 23:03 | -8.13225 | -34.91977 | 48 ft | 18 kts | 343° |
| 2026-05-07 23:03 | -8.13106 | -34.92015 | 48 ft | 18 kts | 341° |
| 2026-05-07 23:04 | -8.12975 | -34.92060 | 49 ft | 22 kts | 341° |
| 2026-05-07 23:04 | -8.12835 | -34.92107 | 48 ft | 21 kts | 343° |
| 2026-05-07 23:04 | -8.12698 | -34.92152 | 49 ft | 20 kts | 341° |
| 2026-05-07 23:04 | -8.12565 | -34.92194 | 47 ft | 20 kts | 343° |
| 2026-05-07 23:05 | -8.12436 | -34.92234 | 48 ft | 19 kts | 342° |
| 2026-05-07 23:05 | -8.12304 | -34.92281 | 48 ft | 24 kts | 340° |
| 2026-05-07 23:05 | -8.12144 | -34.92332 | 46 ft | 23 kts | 343° |
| 2026-05-07 23:05 | -8.11992 | -34.92380 | 47 ft | 23 kts | 342° |
| 2026-05-07 23:06 | -8.11832 | -34.92436 | 45 ft | 26 kts | 342° |
| 2026-05-07 23:06 | -8.11668 | -34.92489 | 47 ft | 24 kts | 342° |
| 2026-05-07 23:06 | -8.11600 | -34.92521 | 47 ft | 0 kts | 325° |
| 2026-05-07 23:06 | -8.11599 | -34.92521 | 47 ft | 1 kts | 325° |
| 2026-05-07 23:07 | -8.11516 | -34.92587 | 48 ft | 19 kts | 319° |
| 2026-05-07 23:07 | -8.11418 | -34.92673 | 47 ft | 18 kts | 319° |
| 2026-05-07 23:07 | -8.11430 | -34.92710 | 47 ft | 8 kts | 156° |
| 2026-05-07 23:07 | -8.11482 | -34.92696 | 45 ft | 7 kts | 164° |
| 2026-05-07 23:08 | -8.11501 | -34.92691 | 45 ft | 0 kts | 162° |
| 2026-05-07 23:08 | -8.11573 | -34.92667 | 45 ft | 42 kts | 162° |
| 2026-05-07 23:09 | -8.12108 | -34.92492 | 45 ft | 117 kts | 162° |
| 2026-05-07 23:09 | -8.13094 | -34.92175 | 56 ft | 177 kts | 163° |
| 2026-05-07 23:09 | -8.14275 | -34.91831 | 885 ft | 171 kts | 164° |
| 2026-05-07 23:09 | -8.15468 | -34.91451 | 1560 ft | 190 kts | 162° |
| 2026-05-07 23:10 | -8.16817 | -34.91006 | 1856 ft | 216 kts | 161° |
| 2026-05-07 23:10 | -8.18286 | -34.90538 | 2249 ft | 227 kts | 168° |
| 2026-05-07 23:10 | -8.19870 | -34.90702 | 2650 ft | 241 kts | 204° |
| 2026-05-07 23:10 | -8.21312 | -34.91645 | 3230 ft | 252 kts | 214° |
| 2026-05-07 23:11 | -8.22698 | -34.92733 | 3970 ft | 253 kts | 215° |
| 2026-05-07 23:11 | -8.24090 | -34.93847 | 4665 ft | 257 kts | 216° |
| 2026-05-07 23:11 | -8.25505 | -34.94969 | 5314 ft | 261 kts | 215° |
| 2026-05-07 23:11 | -8.26948 | -34.96099 | 5994 ft | 264 kts | 215° |
| 2026-05-07 23:12 | -8.28415 | -34.97234 | 6653 ft | 267 kts | 214° |
| 2026-05-07 23:12 | -8.29905 | -34.98376 | 7239 ft | 272 kts | 214° |
| 2026-05-07 23:12 | -8.31426 | -34.99534 | 7855 ft | 275 kts | 214° |
| 2026-05-07 23:12 | -8.32968 | -35.00701 | 8464 ft | 279 kts | 213° |
| 2026-05-07 23:13 | -8.34539 | -35.01884 | 9095 ft | 283 kts | 213° |
| 2026-05-07 23:13 | -8.36129 | -35.03078 | 9702 ft | 287 kts | 213° |
| 2026-05-07 23:13 | -8.37744 | -35.04288 | 10265 ft | 292 kts | 213° |
| 2026-05-07 23:13 | -8.39427 | -35.05544 | 10475 ft | 311 kts | 213° |
| 2026-05-07 23:14 | -8.41221 | -35.06881 | 10626 ft | 330 kts | 214° |
| 2026-05-07 23:14 | -8.43126 | -35.08300 | 10777 ft | 349 kts | 214° |
| 2026-05-07 23:14 | -8.45105 | -35.09774 | 10911 ft | 366 kts | 214° |
| 2026-05-07 23:14 | -8.47205 | -35.11339 | 11021 ft | 382 kts | 214° |
| 2026-05-07 23:15 | -8.49384 | -35.12964 | 11128 ft | 397 kts | 214° |
| 2026-05-07 23:15 | -8.51634 | -35.14642 | 11316 ft | 406 kts | 214° |
| 2026-05-07 23:15 | -8.53923 | -35.16351 | 11729 ft | 409 kts | 214° |
| 2026-05-07 23:15 | -8.56216 | -35.18062 | 12221 ft | 410 kts | 215° |
| 2026-05-07 23:16 | -8.58515 | -35.19776 | 12678 ft | 412 kts | 215° |
| 2026-05-07 23:16 | -8.60830 | -35.21503 | 13094 ft | 414 kts | 215° |
| 2026-05-07 23:16 | -8.63154 | -35.23236 | 13518 ft | 416 kts | 215° |
| 2026-05-07 23:16 | -8.65470 | -35.24962 | 13932 ft | 418 kts | 216° |
| 2026-05-07 23:17 | -8.67845 | -35.26733 | 14302 ft | 421 kts | 216° |
| 2026-05-07 23:17 | -8.70181 | -35.28475 | 14637 ft | 423 kts | 216° |
| 2026-05-07 23:17 | -8.72559 | -35.30248 | 14981 ft | 425 kts | 216° |
| 2026-05-07 23:17 | -8.74950 | -35.32032 | 15330 ft | 427 kts | 216° |
| 2026-05-07 23:18 | -8.77350 | -35.33822 | 15676 ft | 429 kts | 216° |
| 2026-05-07 23:18 | -8.79758 | -35.35618 | 15994 ft | 432 kts | 216° |
| 2026-05-07 23:18 | -8.82177 | -35.37424 | 16325 ft | 433 kts | 216° |
| 2026-05-07 23:18 | -8.84610 | -35.39240 | 16651 ft | 435 kts | 216° |
| 2026-05-07 23:19 | -8.87051 | -35.41062 | 16971 ft | 437 kts | 216° |
| 2026-05-07 23:19 | -8.89503 | -35.42893 | 17272 ft | 439 kts | 216° |
| 2026-05-07 23:19 | -8.91970 | -35.44734 | 17579 ft | 441 kts | 216° |
| 2026-05-07 23:19 | -8.94441 | -35.46579 | 17882 ft | 442 kts | 216° |
| 2026-05-07 23:20 | -8.96894 | -35.48412 | 18152 ft | 444 kts | 216° |
| 2026-05-07 23:20 | -8.99383 | -35.50272 | 18400 ft | 446 kts | 216° |
| 2026-05-07 23:20 | -9.01891 | -35.52146 | 18641 ft | 448 kts | 217° |
| 2026-05-07 23:20 | -9.04404 | -35.54024 | 18880 ft | 450 kts | 217° |
| 2026-05-07 23:21 | -9.06925 | -35.55909 | 19105 ft | 451 kts | 217° |
| 2026-05-07 23:21 | -9.09452 | -35.57798 | 19332 ft | 453 kts | 217° |
| 2026-05-07 23:21 | -9.11991 | -35.59697 | 19569 ft | 454 kts | 217° |
| 2026-05-07 23:21 | -9.14543 | -35.61605 | 19808 ft | 456 kts | 217° |
| 2026-05-07 23:22 | -9.17097 | -35.63516 | 20021 ft | 457 kts | 217° |
| 2026-05-07 23:22 | -9.19660 | -35.65433 | 20243 ft | 459 kts | 217° |
| 2026-05-07 23:22 | -9.22228 | -35.67355 | 20468 ft | 460 kts | 218° |
| 2026-05-07 23:22 | -9.24810 | -35.69287 | 20682 ft | 461 kts | 218° |
| 2026-05-07 23:23 | -9.27388 | -35.71217 | 20891 ft | 463 kts | 218° |
| 2026-05-07 23:23 | -9.29980 | -35.73158 | 21091 ft | 464 kts | 218° |
| 2026-05-07 23:23 | -9.32585 | -35.75109 | 21293 ft | 466 kts | 218° |
| 2026-05-07 23:23 | -9.35188 | -35.77058 | 21487 ft | 467 kts | 218° |
| 2026-05-07 23:24 | -9.37809 | -35.79022 | 21683 ft | 468 kts | 218° |
| 2026-05-07 23:24 | -9.40404 | -35.80966 | 21881 ft | 470 kts | 218° |
| 2026-05-07 23:24 | -9.43026 | -35.82931 | 22076 ft | 471 kts | 218° |
| 2026-05-07 23:24 | -9.45673 | -35.84915 | 22254 ft | 472 kts | 218° |
| 2026-05-07 23:25 | -9.48316 | -35.86897 | 22441 ft | 473 kts | 218° |
| 2026-05-07 23:25 | -9.50966 | -35.88884 | 22616 ft | 475 kts | 219° |
| 2026-05-07 23:25 | -9.53623 | -35.90877 | 22802 ft | 476 kts | 219° |
| 2026-05-07 23:25 | -9.56293 | -35.92880 | 22977 ft | 477 kts | 219° |
| 2026-05-07 23:26 | -9.58964 | -35.94884 | 23147 ft | 478 kts | 219° |
| 2026-05-07 23:26 | -9.61640 | -35.96892 | 23317 ft | 479 kts | 219° |
| 2026-05-07 23:26 | -9.64318 | -35.98902 | 23480 ft | 480 kts | 219° |
| 2026-05-07 23:26 | -9.67005 | -36.00920 | 23626 ft | 481 kts | 219° |
| 2026-05-07 23:27 | -9.72365 | -36.04944 | 23929 ft | 482 kts | 219° |
| 2026-05-07 23:27 | -9.75068 | -36.06975 | 24064 ft | 483 kts | 219° |
| 2026-05-07 23:27 | -9.77778 | -36.09010 | 24190 ft | 484 kts | 219° |
| 2026-05-07 23:28 | -9.80482 | -36.11043 | 24321 ft | 485 kts | 219° |
| 2026-05-07 23:28 | -9.83194 | -36.13081 | 24460 ft | 485 kts | 219° |
| 2026-05-07 23:28 | -9.85906 | -36.15120 | 24592 ft | 486 kts | 219° |
| 2026-05-07 23:28 | -9.88629 | -36.17168 | 24704 ft | 486 kts | 219° |
| 2026-05-07 23:29 | -9.91351 | -36.19215 | 24840 ft | 487 kts | 219° |
| 2026-05-07 23:29 | -9.94074 | -36.21264 | 24950 ft | 488 kts | 219° |
| 2026-05-07 23:29 | -9.96767 | -36.23290 | 25056 ft | 489 kts | 219° |
| 2026-05-07 23:29 | -9.99497 | -36.25345 | 25170 ft | 489 kts | 219° |
| 2026-05-07 23:30 | -10.02239 | -36.27408 | 25274 ft | 490 kts | 219° |
| 2026-05-07 23:30 | -10.04974 | -36.29468 | 25420 ft | 489 kts | 219° |
| 2026-05-07 23:30 | -10.07706 | -36.31525 | 25604 ft | 488 kts | 219° |
| 2026-05-07 23:30 | -10.10437 | -36.33581 | 25800 ft | 487 kts | 219° |
| 2026-05-07 23:31 | -10.13155 | -36.35629 | 25963 ft | 487 kts | 219° |
| 2026-05-07 23:31 | -10.15878 | -36.37681 | 26137 ft | 486 kts | 219° |
| 2026-05-07 23:31 | -10.18597 | -36.39731 | 26305 ft | 486 kts | 219° |
| 2026-05-07 23:31 | -10.21313 | -36.41778 | 26497 ft | 485 kts | 219° |
| 2026-05-07 23:32 | -10.24020 | -36.43820 | 26683 ft | 484 kts | 219° |
| 2026-05-07 23:32 | -10.26727 | -36.45862 | 26895 ft | 483 kts | 219° |
| 2026-05-07 23:32 | -10.29394 | -36.47873 | 27077 ft | 483 kts | 219° |
| 2026-05-07 23:32 | -10.32093 | -36.49910 | 27258 ft | 483 kts | 219° |
| 2026-05-07 23:33 | -10.34784 | -36.51942 | 27464 ft | 482 kts | 219° |
| 2026-05-07 23:33 | -10.37477 | -36.53974 | 27675 ft | 481 kts | 219° |
| 2026-05-07 23:33 | -10.39250 | -36.55313 | 27805 ft | 481 kts | 219° |
| 2026-05-07 23:33 | -10.41932 | -36.57338 | 27997 ft | 480 kts | 220° |
| 2026-05-07 23:34 | -10.44645 | -36.59387 | 28217 ft | 479 kts | 220° |
| 2026-05-07 23:34 | -10.48190 | -36.62066 | 28500 ft | 478 kts | 220° |
| 2026-05-07 23:34 | -10.49955 | -36.63400 | 28645 ft | 478 kts | 220° |
| 2026-05-07 23:34 | -10.52621 | -36.65415 | 28843 ft | 478 kts | 220° |
| 2026-05-07 23:35 | -10.55289 | -36.67432 | 29067 ft | 477 kts | 220° |
| 2026-05-07 23:35 | -10.57948 | -36.69443 | 29302 ft | 476 kts | 220° |
| 2026-05-07 23:35 | -10.60599 | -36.71448 | 29501 ft | 475 kts | 220° |
| 2026-05-07 23:35 | -10.63257 | -36.73458 | 29723 ft | 475 kts | 220° |
| 2026-05-07 23:36 | -10.65903 | -36.75461 | 29963 ft | 474 kts | 220° |
| 2026-05-07 23:36 | -10.68544 | -36.77459 | 30188 ft | 473 kts | 220° |
| 2026-05-07 23:36 | -10.71190 | -36.79462 | 30340 ft | 473 kts | 220° |
| 2026-05-07 23:36 | -10.73833 | -36.81464 | 30510 ft | 473 kts | 220° |
| 2026-05-07 23:37 | -10.76432 | -36.83432 | 30702 ft | 472 kts | 220° |
| 2026-05-07 23:37 | -10.79064 | -36.85426 | 30896 ft | 471 kts | 220° |
| 2026-05-07 23:37 | -10.81687 | -36.87413 | 31074 ft | 471 kts | 220° |
| 2026-05-07 23:37 | -10.84317 | -36.89406 | 31266 ft | 470 kts | 220° |
| 2026-05-07 23:38 | -10.86941 | -36.91395 | 31458 ft | 469 kts | 220° |
| 2026-05-07 23:38 | -10.89555 | -36.93378 | 31660 ft | 468 kts | 220° |
| 2026-05-07 23:38 | -10.92165 | -36.95357 | 31841 ft | 468 kts | 220° |
| 2026-05-07 23:38 | -10.94772 | -36.97335 | 32012 ft | 467 kts | 220° |
| 2026-05-07 23:39 | -10.99973 | -37.01282 | 32029 ft | 470 kts | 220° |
| 2026-05-07 23:39 | -11.05256 | -37.05294 | 32038 ft | 472 kts | 220° |
| 2026-05-07 23:40 | -11.10495 | -37.09273 | 32035 ft | 472 kts | 220° |
| 2026-05-07 23:40 | -11.15755 | -37.13269 | 32038 ft | 471 kts | 220° |
| 2026-05-07 23:41 | -11.21008 | -37.17262 | 32045 ft | 470 kts | 220° |
| 2026-05-07 23:41 | -11.26244 | -37.21244 | 32053 ft | 469 kts | 220° |
| 2026-05-07 23:42 | -11.31466 | -37.25216 | 32061 ft | 467 kts | 220° |
| 2026-05-07 23:42 | -11.36681 | -37.29187 | 32063 ft | 467 kts | 220° |
| 2026-05-07 23:43 | -11.41847 | -37.33122 | 32066 ft | 466 kts | 220° |
| 2026-05-07 23:43 | -11.47042 | -37.37081 | 32066 ft | 465 kts | 220° |
| 2026-05-07 23:44 | -11.52226 | -37.41033 | 32065 ft | 465 kts | 220° |
| 2026-05-07 23:44 | -11.57402 | -37.44980 | 32066 ft | 465 kts | 220° |
| 2026-05-07 23:45 | -11.62586 | -37.48936 | 32067 ft | 464 kts | 220° |
| 2026-05-07 23:45 | -11.67724 | -37.52859 | 32065 ft | 464 kts | 220° |
| 2026-05-07 23:46 | -11.72892 | -37.56806 | 32069 ft | 464 kts | 220° |
| 2026-05-07 23:46 | -11.78068 | -37.60761 | 32070 ft | 464 kts | 220° |
| 2026-05-07 23:47 | -11.83240 | -37.64715 | 32071 ft | 464 kts | 220° |
| 2026-05-07 23:47 | -11.88409 | -37.68669 | 32071 ft | 464 kts | 220° |
| 2026-05-07 23:48 | -11.93585 | -37.72629 | 32071 ft | 464 kts | 220° |
| 2026-05-07 23:48 | -11.98757 | -37.76589 | 32073 ft | 464 kts | 220° |
| 2026-05-07 23:49 | -12.03926 | -37.80549 | 32072 ft | 464 kts | 220° |
| 2026-05-07 23:49 | -12.09098 | -37.84512 | 32074 ft | 464 kts | 219° |
| 2026-05-07 23:50 | -12.14225 | -37.88444 | 32079 ft | 463 kts | 219° |
| 2026-05-07 23:50 | -12.19383 | -37.92401 | 32071 ft | 463 kts | 219° |
| 2026-05-07 23:51 | -12.24540 | -37.96359 | 32068 ft | 463 kts | 219° |
| 2026-05-07 23:51 | -12.29690 | -38.00313 | 32078 ft | 462 kts | 219° |
| 2026-05-07 23:52 | -12.34797 | -38.04237 | 32081 ft | 462 kts | 219° |
| 2026-05-07 23:52 | -12.39939 | -38.08189 | 32081 ft | 462 kts | 219° |
| 2026-05-07 23:53 | -12.45076 | -38.12140 | 32071 ft | 462 kts | 219° |
| 2026-05-07 23:53 | -12.50218 | -38.16097 | 32086 ft | 462 kts | 219° |
| 2026-05-07 23:54 | -12.55364 | -38.20058 | 32075 ft | 462 kts | 219° |
| 2026-05-07 23:54 | -12.60464 | -38.23987 | 32075 ft | 462 kts | 219° |
| 2026-05-07 23:55 | -12.65601 | -38.27946 | 32065 ft | 462 kts | 218° |
| 2026-05-07 23:55 | -12.70734 | -38.31903 | 32088 ft | 462 kts | 218° |
| 2026-05-07 23:56 | -12.75868 | -38.35863 | 32078 ft | 462 kts | 218° |
| 2026-05-07 23:56 | -12.81013 | -38.39834 | 32069 ft | 462 kts | 218° |
| 2026-05-07 23:57 | -12.86139 | -38.43793 | 32088 ft | 462 kts | 218° |
| 2026-05-07 23:57 | -12.91270 | -38.47757 | 32073 ft | 462 kts | 218° |
| 2026-05-07 23:58 | -12.96399 | -38.51722 | 32074 ft | 462 kts | 218° |
| 2026-05-07 23:58 | -13.01520 | -38.55683 | 32092 ft | 461 kts | 218° |
| 2026-05-07 23:59 | -13.06617 | -38.59627 | 32082 ft | 461 kts | 218° |
| 2026-05-07 23:59 | -13.11733 | -38.63589 | 32085 ft | 461 kts | 218° |
| 2026-05-08 00:00 | -13.16854 | -38.67556 | 32081 ft | 460 kts | 218° |
| 2026-05-08 00:00 | -13.21965 | -38.71518 | 32084 ft | 460 kts | 217° |
| 2026-05-08 00:01 | -13.27076 | -38.75481 | 32085 ft | 460 kts | 217° |
| 2026-05-08 00:01 | -13.32181 | -38.79443 | 32095 ft | 460 kts | 217° |
| 2026-05-08 00:02 | -13.37286 | -38.83406 | 32083 ft | 460 kts | 217° |
| 2026-05-08 00:02 | -13.42387 | -38.87369 | 32088 ft | 459 kts | 217° |
| 2026-05-08 00:03 | -13.47485 | -38.91331 | 32108 ft | 459 kts | 217° |
| 2026-05-08 00:03 | -13.52581 | -38.95294 | 32092 ft | 459 kts | 217° |
| 2026-05-08 00:04 | -13.57647 | -38.99235 | 32090 ft | 459 kts | 217° |
| 2026-05-08 00:04 | -13.62740 | -39.03200 | 32103 ft | 459 kts | 217° |
| 2026-05-08 00:05 | -13.67837 | -39.07170 | 32097 ft | 459 kts | 217° |
| 2026-05-08 00:05 | -13.72933 | -39.11142 | 32096 ft | 460 kts | 217° |
| 2026-05-08 00:06 | -13.78031 | -39.15117 | 32102 ft | 459 kts | 217° |
| 2026-05-08 00:06 | -13.83122 | -39.19089 | 32102 ft | 459 kts | 217° |
| 2026-05-08 00:07 | -13.88219 | -39.23069 | 32105 ft | 459 kts | 217° |
| 2026-05-08 00:07 | -13.93291 | -39.27030 | 32105 ft | 459 kts | 217° |
| 2026-05-08 00:08 | -13.98379 | -39.31007 | 32103 ft | 459 kts | 217° |
| 2026-05-08 00:08 | -14.03470 | -39.34989 | 32108 ft | 459 kts | 217° |
| 2026-05-08 00:09 | -14.08550 | -39.38963 | 32111 ft | 458 kts | 217° |
| 2026-05-08 00:09 | -14.13629 | -39.42939 | 32107 ft | 458 kts | 217° |
| 2026-05-08 00:10 | -14.18700 | -39.46912 | 32109 ft | 458 kts | 216° |
| 2026-05-08 00:10 | -14.23772 | -39.50887 | 32111 ft | 457 kts | 216° |
| 2026-05-08 00:11 | -14.28807 | -39.54836 | 32110 ft | 457 kts | 216° |
| 2026-05-08 00:11 | -14.33861 | -39.58802 | 32112 ft | 456 kts | 216° |
| 2026-05-08 00:12 | -14.38916 | -39.62771 | 32112 ft | 456 kts | 216° |
| 2026-05-08 00:12 | -14.43957 | -39.66731 | 32117 ft | 455 kts | 216° |
| 2026-05-08 00:13 | -14.48983 | -39.70682 | 32115 ft | 454 kts | 216° |
| 2026-05-08 00:13 | -14.54007 | -39.74634 | 32121 ft | 453 kts | 216° |
| 2026-05-08 00:14 | -14.58994 | -39.78559 | 32120 ft | 453 kts | 216° |
| 2026-05-08 00:14 | -14.63999 | -39.82500 | 32124 ft | 452 kts | 216° |
| 2026-05-08 00:15 | -14.69002 | -39.86441 | 32124 ft | 452 kts | 216° |
| 2026-05-08 00:15 | -14.73991 | -39.90375 | 32130 ft | 451 kts | 216° |
| 2026-05-08 00:16 | -14.78979 | -39.94310 | 32126 ft | 450 kts | 216° |
| 2026-05-08 00:16 | -14.83954 | -39.98237 | 32131 ft | 450 kts | 216° |
| 2026-05-08 00:17 | -14.88926 | -40.02163 | 32133 ft | 449 kts | 215° |
| 2026-05-08 00:17 | -14.93896 | -40.06091 | 32140 ft | 449 kts | 215° |
| 2026-05-08 00:18 | -14.98852 | -40.10011 | 32128 ft | 448 kts | 215° |
| 2026-05-08 00:18 | -15.03803 | -40.13927 | 32134 ft | 448 kts | 215° |
| 2026-05-08 00:19 | -15.08718 | -40.17819 | 32126 ft | 448 kts | 215° |
| 2026-05-08 00:19 | -15.13661 | -40.21735 | 32128 ft | 447 kts | 215° |
| 2026-05-08 00:20 | -15.18600 | -40.25650 | 32128 ft | 446 kts | 215° |
| 2026-05-08 00:20 | -15.23530 | -40.29559 | 32128 ft | 446 kts | 215° |
| 2026-05-08 00:21 | -15.28454 | -40.33467 | 32128 ft | 445 kts | 215° |
| 2026-05-08 00:21 | -15.33372 | -40.37372 | 32126 ft | 445 kts | 215° |
| 2026-05-08 00:22 | -15.38253 | -40.41250 | 32145 ft | 444 kts | 215° |
| 2026-05-08 00:22 | -15.43160 | -40.45152 | 32129 ft | 445 kts | 215° |
| 2026-05-08 00:23 | -15.48068 | -40.49056 | 32135 ft | 444 kts | 215° |
| 2026-05-08 00:23 | -15.52967 | -40.52956 | 32125 ft | 444 kts | 214° |
| 2026-05-08 00:24 | -15.57036 | -40.56197 | 32133 ft | 444 kts | 215° |
| 2026-05-08 00:24 | -15.61928 | -40.60095 | 32134 ft | 444 kts | 214° |
| 2026-05-08 00:25 | -15.66824 | -40.63999 | 32135 ft | 444 kts | 214° |
| 2026-05-08 00:25 | -15.71720 | -40.67906 | 32145 ft | 443 kts | 214° |
| 2026-05-08 00:26 | -15.76618 | -40.71816 | 32139 ft | 443 kts | 214° |
| 2026-05-08 00:26 | -15.81465 | -40.75688 | 32166 ft | 442 kts | 214° |
| 2026-05-08 00:27 | -15.86343 | -40.79587 | 32133 ft | 442 kts | 214° |
| 2026-05-08 00:27 | -15.91223 | -40.83491 | 32156 ft | 442 kts | 214° |
| 2026-05-08 00:28 | -15.96097 | -40.87393 | 32143 ft | 442 kts | 214° |
| 2026-05-08 00:28 | -16.00966 | -40.91293 | 32155 ft | 441 kts | 214° |
| 2026-05-08 00:29 | -16.05798 | -40.95165 | 32132 ft | 441 kts | 214° |
| 2026-05-08 00:29 | -16.10656 | -40.99061 | 32137 ft | 441 kts | 214° |
| 2026-05-08 00:30 | -16.15545 | -41.02983 | 32141 ft | 441 kts | 214° |
| 2026-05-08 00:30 | -16.20373 | -41.06860 | 32139 ft | 440 kts | 214° |
| 2026-05-08 00:31 | -16.25215 | -41.10751 | 32153 ft | 440 kts | 214° |
| 2026-05-08 00:31 | -16.30067 | -41.14652 | 32136 ft | 440 kts | 214° |
| 2026-05-08 00:32 | -16.34907 | -41.18546 | 32154 ft | 440 kts | 214° |
| 2026-05-08 00:32 | -16.39722 | -41.22421 | 32149 ft | 439 kts | 214° |
| 2026-05-08 00:33 | -16.44562 | -41.26320 | 32150 ft | 439 kts | 214° |
| 2026-05-08 00:33 | -16.49403 | -41.30222 | 32137 ft | 439 kts | 214° |
| 2026-05-08 00:34 | -16.54237 | -41.34121 | 32141 ft | 439 kts | 214° |
| 2026-05-08 00:34 | -16.59062 | -41.38015 | 32142 ft | 438 kts | 214° |
| 2026-05-08 00:35 | -16.63888 | -41.41912 | 32138 ft | 438 kts | 214° |
| 2026-05-08 00:35 | -16.68698 | -41.45799 | 32142 ft | 438 kts | 214° |
| 2026-05-08 00:36 | -16.73483 | -41.49669 | 32137 ft | 438 kts | 214° |
| 2026-05-08 00:36 | -16.78306 | -41.53572 | 32143 ft | 438 kts | 214° |
| 2026-05-08 00:37 | -16.83132 | -41.57479 | 32148 ft | 439 kts | 214° |
| 2026-05-08 00:38 | -16.90368 | -41.63343 | 32149 ft | 439 kts | 214° |
| 2026-05-08 00:38 | -16.95164 | -41.67233 | 32152 ft | 439 kts | 214° |
| 2026-05-08 00:39 | -16.99987 | -41.71148 | 32151 ft | 439 kts | 214° |
| 2026-05-08 00:39 | -17.04813 | -41.75067 | 32158 ft | 439 kts | 214° |
| 2026-05-08 00:40 | -17.09634 | -41.78986 | 32159 ft | 439 kts | 214° |
| 2026-05-08 00:40 | -17.14455 | -41.82906 | 32163 ft | 439 kts | 214° |
| 2026-05-08 00:41 | -17.19276 | -41.86829 | 32165 ft | 439 kts | 214° |
| 2026-05-08 00:41 | -17.24061 | -41.90726 | 32164 ft | 439 kts | 215° |
| 2026-05-08 00:42 | -17.28874 | -41.94648 | 32164 ft | 438 kts | 215° |
| 2026-05-08 00:42 | -17.33690 | -41.98576 | 32180 ft | 438 kts | 215° |
| 2026-05-08 00:43 | -17.38501 | -42.02502 | 32167 ft | 438 kts | 215° |
| 2026-05-08 00:43 | -17.43304 | -42.06424 | 32173 ft | 438 kts | 215° |
| 2026-05-08 00:44 | -17.48116 | -42.10355 | 32167 ft | 439 kts | 215° |
| 2026-05-08 00:44 | -17.52898 | -42.14266 | 32171 ft | 438 kts | 215° |
| 2026-05-08 00:45 | -17.57707 | -42.18200 | 32167 ft | 439 kts | 215° |
| 2026-05-08 00:45 | -17.62517 | -42.22139 | 32172 ft | 438 kts | 215° |
| 2026-05-08 00:46 | -17.67317 | -42.26073 | 32171 ft | 438 kts | 215° |
| 2026-05-08 00:46 | -17.72122 | -42.30012 | 32165 ft | 439 kts | 216° |
| 2026-05-08 00:47 | -17.76940 | -42.33965 | 32167 ft | 439 kts | 216° |
| 2026-05-08 00:47 | -17.81750 | -42.37915 | 32166 ft | 438 kts | 216° |
| 2026-05-08 00:48 | -17.86518 | -42.41833 | 32160 ft | 439 kts | 216° |
| 2026-05-08 00:48 | -17.91329 | -42.45789 | 32160 ft | 439 kts | 216° |
| 2026-05-08 00:49 | -17.96137 | -42.49745 | 32154 ft | 439 kts | 216° |
| 2026-05-08 00:49 | -18.00954 | -42.53712 | 32156 ft | 440 kts | 216° |
| 2026-05-08 00:50 | -18.05766 | -42.57677 | 32153 ft | 440 kts | 216° |
| 2026-05-08 00:50 | -18.10580 | -42.61647 | 32159 ft | 440 kts | 216° |
| 2026-05-08 00:51 | -18.15404 | -42.65627 | 32150 ft | 440 kts | 216° |
| 2026-05-08 00:51 | -18.20189 | -42.69579 | 32153 ft | 440 kts | 216° |
| 2026-05-08 00:52 | -18.25030 | -42.73580 | 32157 ft | 440 kts | 216° |
| 2026-05-08 00:52 | -18.29811 | -42.77533 | 32154 ft | 440 kts | 216° |
| 2026-05-08 00:53 | -18.34626 | -42.81518 | 32158 ft | 440 kts | 216° |
| 2026-05-08 00:53 | -18.39442 | -42.85507 | 32152 ft | 440 kts | 216° |
| 2026-05-08 00:54 | -18.44255 | -42.89497 | 32156 ft | 440 kts | 216° |
| 2026-05-08 00:54 | -18.49066 | -42.93487 | 32151 ft | 440 kts | 216° |
| 2026-05-08 00:55 | -18.53880 | -42.97483 | 32159 ft | 440 kts | 216° |
| 2026-05-08 00:55 | -18.58697 | -43.01484 | 32165 ft | 441 kts | 216° |
| 2026-05-08 00:56 | -18.63485 | -43.05464 | 32158 ft | 441 kts | 216° |
| 2026-05-08 00:56 | -18.68305 | -43.09473 | 32150 ft | 441 kts | 217° |
| 2026-05-08 00:57 | -18.73133 | -43.13493 | 32147 ft | 442 kts | 217° |
| 2026-05-08 00:57 | -18.77952 | -43.17508 | 32153 ft | 442 kts | 217° |
| 2026-05-08 00:58 | -18.82775 | -43.21529 | 32153 ft | 442 kts | 217° |
| 2026-05-08 00:58 | -18.87568 | -43.25528 | 32159 ft | 441 kts | 217° |
| 2026-05-08 00:59 | -18.92385 | -43.29550 | 32156 ft | 442 kts | 217° |
| 2026-05-08 00:59 | -18.97213 | -43.33584 | 32152 ft | 442 kts | 217° |
| 2026-05-08 01:00 | -19.02028 | -43.37611 | 32152 ft | 442 kts | 217° |
| 2026-05-08 01:00 | -19.06852 | -43.41649 | 32156 ft | 442 kts | 217° |
| 2026-05-08 01:01 | -19.11635 | -43.45654 | 32151 ft | 442 kts | 217° |
| 2026-05-08 01:01 | -19.16437 | -43.49680 | 32156 ft | 442 kts | 217° |
| 2026-05-08 01:02 | -19.21264 | -43.53729 | 32156 ft | 442 kts | 217° |
| 2026-05-08 01:02 | -19.26054 | -43.57750 | 32159 ft | 443 kts | 217° |
| 2026-05-08 01:03 | -19.30892 | -43.61814 | 32156 ft | 443 kts | 217° |
| 2026-05-08 01:03 | -19.35716 | -43.65870 | 32156 ft | 443 kts | 217° |
| 2026-05-08 01:04 | -19.40544 | -43.69933 | 32164 ft | 443 kts | 217° |
| 2026-05-08 01:04 | -19.45359 | -43.73987 | 32172 ft | 442 kts | 217° |
| 2026-05-08 01:05 | -19.50146 | -43.78021 | 32181 ft | 442 kts | 217° |
| 2026-05-08 01:05 | -19.54961 | -43.82082 | 32196 ft | 442 kts | 217° |
| 2026-05-08 01:06 | -19.59774 | -43.86144 | 32202 ft | 442 kts | 218° |
| 2026-05-08 01:06 | -19.64589 | -43.90212 | 32207 ft | 441 kts | 218° |
| 2026-05-08 01:07 | -19.69395 | -43.94275 | 32198 ft | 441 kts | 218° |
| 2026-05-08 01:07 | -19.74194 | -43.98335 | 32202 ft | 441 kts | 218° |
| 2026-05-08 01:08 | -19.78970 | -44.02379 | 32199 ft | 441 kts | 218° |
| 2026-05-08 01:08 | -19.83763 | -44.06441 | 32201 ft | 441 kts | 218° |
| 2026-05-08 01:09 | -19.88563 | -44.10511 | 32193 ft | 441 kts | 218° |
| 2026-05-08 01:09 | -19.93365 | -44.14587 | 32183 ft | 441 kts | 218° |
| 2026-05-08 01:10 | -19.98164 | -44.18664 | 32172 ft | 441 kts | 218° |
| 2026-05-08 01:10 | -20.02954 | -44.22736 | 32160 ft | 441 kts | 218° |
| 2026-05-08 01:11 | -20.07722 | -44.26792 | 32151 ft | 441 kts | 218° |
| 2026-05-08 01:11 | -20.12509 | -44.30869 | 32151 ft | 441 kts | 218° |
| 2026-05-08 01:12 | -20.17300 | -44.34952 | 32153 ft | 441 kts | 218° |
| 2026-05-08 01:12 | -20.22093 | -44.39039 | 32149 ft | 441 kts | 218° |
| 2026-05-08 01:13 | -20.26877 | -44.43123 | 32151 ft | 441 kts | 218° |
| 2026-05-08 01:13 | -20.31664 | -44.47213 | 32154 ft | 441 kts | 218° |
| 2026-05-08 01:14 | -20.35644 | -44.50615 | 32158 ft | 441 kts | 218° |
| 2026-05-08 01:14 | -20.40430 | -44.54709 | 32148 ft | 441 kts | 218° |
| 2026-05-08 01:15 | -20.45991 | -44.59471 | 32156 ft | 441 kts | 218° |
| 2026-05-08 01:15 | -20.49993 | -44.62901 | 32153 ft | 441 kts | 218° |
| 2026-05-08 01:16 | -20.54773 | -44.67001 | 32159 ft | 441 kts | 218° |
| 2026-05-08 01:16 | -20.59554 | -44.71104 | 32154 ft | 441 kts | 218° |
| 2026-05-08 01:17 | -20.64299 | -44.75180 | 32154 ft | 441 kts | 218° |
| 2026-05-08 01:17 | -20.69075 | -44.79286 | 32151 ft | 440 kts | 218° |
| 2026-05-08 01:18 | -20.73848 | -44.83394 | 32149 ft | 440 kts | 218° |
| 2026-05-08 01:18 | -20.78621 | -44.87505 | 32152 ft | 440 kts | 218° |
| 2026-05-08 01:19 | -20.82590 | -44.90925 | 32149 ft | 440 kts | 218° |